Villa Toledo, Puerto Rico
Current Conditions -  °F | °C
As of 11:50 PM on Thursday 18 Dec 2014 (Local Time) from TJBQ Reporting Station
Overcast Overcast  
Wind Chill: 70°   Ceiling: 3800
Heat Index: 70°   Visibility: 5mi
Dew Point: 70°   Wind: 6mph
Humidity: 100%   Direction: 70°ENE
Pressure: 30.03"   Gusts: NA
Location:  18.4739°N, 66.7295°W
Report Text: TJBQ 190350Z 07005KT 5SM SCT008 BKN038 OVC046 21/21 A3003 RA RMK RWY08 ATIS H
Loading
Personal Weather Stations






























Interactive Weather Map New forecast layout! Learn more

10-Day Weather Forecast

Advertisements
Track Severe Weather on mobile